createdAt,value
2019-06-07T00:02:19.028Z,48.30
2019-06-07T00:04:48.772Z,48.30
2019-06-07T00:07:21.763Z,48.40
2019-06-07T00:09:49.814Z,48.50
2019-06-07T00:12:21.414Z,48.50
2019-06-07T00:14:50.987Z,48.60
2019-06-07T00:17:20.661Z,48.80
2019-06-07T00:19:50.541Z,49.00
2019-06-07T00:22:32.430Z,49.20
2019-06-07T00:24:51.707Z,49.40
2019-06-07T00:27:27.649Z,49.50
2019-06-07T00:29:57.362Z,50.10
2019-06-07T00:32:27.189Z,49.60
2019-06-07T00:34:56.844Z,49.80
2019-06-07T00:37:26.499Z,49.80
2019-06-07T00:40:13.378Z,50.00
2019-06-07T00:42:27.611Z,50.10
2019-06-07T00:44:57.379Z,50.30
2019-06-07T00:47:27.083Z,50.40
2019-06-07T00:49:56.724Z,50.60
2019-06-07T00:54:57.820Z,50.90
2019-06-07T00:57:27.503Z,50.90
2019-06-07T00:59:57.211Z,50.90
2019-06-07T01:02:31.215Z,51.00
2019-06-07T01:04:58.344Z,51.00
2019-06-07T01:07:28.048Z,51.00
2019-06-07T01:09:57.739Z,50.90
2019-06-07T01:12:27.469Z,51.10
2019-06-07T01:14:57.228Z,51.10
2019-06-07T01:17:41.192Z,51.10
2019-06-07T01:19:59.451Z,51.10
2019-06-07T01:22:29.590Z,51.10
2019-06-07T01:24:59.428Z,51.20
2019-06-07T01:27:29.163Z,51.20
2019-06-07T01:29:58.889Z,51.40
2019-06-07T01:32:31.766Z,51.60
2019-06-07T01:35:00.364Z,51.70
2019-06-07T01:37:30.530Z,51.90
2019-06-07T01:40:00.339Z,51.90
2019-06-07T01:42:31.041Z,51.90
2019-06-07T01:45:00.947Z,52.10
2019-06-07T01:47:32.015Z,52.20
2019-06-07T01:50:02.300Z,52.30
2019-06-07T01:52:32.292Z,52.50
2019-06-07T01:55:02.158Z,52.50
2019-06-07T01:57:45.652Z,52.50
2019-06-07T02:00:03.836Z,52.60
2019-06-07T02:02:33.706Z,52.70
2019-06-07T02:05:03.611Z,52.80
2019-06-07T02:07:35.081Z,52.80
2019-06-07T02:10:05.918Z,52.90
2019-06-07T02:12:42.865Z,52.90
2019-06-07T02:15:08.939Z,52.90
2019-06-07T02:17:38.911Z,52.90
2019-06-07T02:20:09.562Z,53.00
2019-06-07T02:22:40.830Z,53.00
2019-06-07T02:25:37.399Z,53.10
2019-06-07T02:27:42.207Z,53.30
2019-06-07T02:32:43.745Z,53.70
2019-06-07T02:35:14.553Z,53.50
2019-06-07T02:37:44.290Z,53.60
2019-06-07T02:40:14.436Z,53.70
2019-06-07T02:42:44.281Z,53.70
2019-06-07T02:45:14.120Z,53.70
2019-06-07T02:47:45.520Z,53.90
2019-06-07T02:50:15.902Z,53.90
2019-06-07T02:52:45.889Z,54.10
2019-06-07T02:55:16.462Z,54.00
2019-06-07T02:57:46.275Z,54.00
2019-06-07T03:02:54.096Z,54.10
2019-06-07T03:05:25.092Z,54.10
2019-06-07T03:07:55.583Z,54.00
2019-06-07T03:10:28.568Z,54.10
2019-06-07T03:12:57.269Z,54.10
2019-06-07T03:15:35.467Z,54.10
2019-06-07T03:18:22.675Z,54.20
2019-06-07T03:21:05.077Z,54.20
2019-06-07T03:23:28.805Z,54.10
2019-06-07T03:26:00.435Z,54.10
2019-06-07T03:28:34.422Z,54.20
2019-06-07T03:31:03.342Z,54.30
2019-06-07T03:33:41.054Z,54.30
2019-06-07T03:36:23.210Z,54.30
2019-06-07T03:38:39.829Z,54.50
2019-06-07T03:41:09.763Z,54.50
2019-06-07T03:43:42.001Z,54.50
2019-06-07T03:46:11.785Z,54.60
2019-06-07T03:48:41.707Z,54.60
2019-06-07T03:51:24.276Z,54.50
2019-06-07T03:53:43.239Z,54.40
2019-06-07T03:56:13.647Z,54.50
2019-06-07T03:58:49.819Z,54.40
2019-06-07T04:01:15.284Z,54.30
2019-06-07T04:03:51.398Z,54.30
2019-06-07T04:06:16.442Z,54.40
2019-06-07T04:08:46.388Z,54.40
2019-06-07T04:11:16.232Z,54.50
2019-06-07T04:13:45.907Z,54.50
2019-06-07T04:16:15.548Z,54.60
2019-06-07T04:18:45.393Z,54.60
2019-06-07T04:21:15.258Z,54.60
2019-06-07T04:23:48.124Z,54.50
2019-06-07T04:26:19.040Z,54.40
2019-06-07T04:29:31.714Z,54.40
2019-06-07T04:31:20.234Z,54.30
2019-06-07T04:33:50.342Z,54.50
2019-06-07T04:36:39.233Z,53.90
2019-06-07T04:38:53.895Z,53.90
2019-06-07T04:41:25.529Z,53.90
2019-06-07T04:43:55.527Z,54.50
2019-06-07T04:46:25.763Z,54.50
2019-06-07T04:48:56.083Z,53.80
2019-06-07T04:51:27.091Z,53.70
2019-06-07T04:53:56.773Z,53.70
2019-06-07T04:56:26.529Z,53.80
2019-06-07T04:58:56.296Z,53.90
2019-06-07T05:01:27.740Z,54.10
2019-06-07T05:03:57.309Z,54.00
2019-06-07T05:06:26.974Z,54.00
2019-06-07T05:08:56.654Z,53.90
2019-06-07T05:11:26.457Z,53.80
2019-06-07T05:13:56.308Z,54.00
2019-06-07T05:16:25.983Z,54.50
2019-06-07T05:18:55.642Z,54.60
2019-06-07T05:21:25.335Z,54.60
2019-06-07T05:24:07.396Z,54.60
2019-06-07T05:26:30.489Z,54.40
2019-06-07T05:29:01.131Z,54.20
2019-06-07T05:31:31.786Z,54.80
2019-06-07T05:34:08.042Z,53.90
2019-06-07T05:36:41.408Z,53.80
2019-06-07T05:39:10.202Z,53.60
2019-06-07T05:41:42.734Z,53.60
2019-06-07T05:44:13.122Z,54.10
2019-06-07T05:46:46.708Z,53.40
2019-06-07T05:49:14.111Z,53.40
2019-06-07T05:51:45.036Z,53.40
2019-06-07T05:54:15.115Z,53.50
2019-06-07T05:56:45.359Z,53.70
2019-06-07T05:59:15.250Z,53.50
2019-06-07T06:01:55.938Z,53.40
2019-06-07T06:04:16.261Z,53.30
2019-06-07T06:06:47.209Z,53.20
2019-06-07T06:09:17.314Z,53.30
2019-06-07T06:11:59.547Z,53.10
2019-06-07T06:14:18.810Z,53.00
2019-06-07T06:16:50.214Z,52.90
2019-06-07T06:19:19.940Z,52.80
2019-06-07T06:21:49.587Z,52.80
2019-06-07T06:24:21.149Z,52.90
2019-06-07T06:26:55.085Z,52.40
2019-06-07T06:29:22.163Z,52.80
2019-06-07T06:32:39.524Z,52.70
2019-06-07T06:34:23.289Z,52.60
2019-06-07T06:36:53.124Z,54.10
2019-06-07T06:39:22.882Z,52.60
2019-06-07T06:42:01.078Z,52.60
2019-06-07T06:44:23.910Z,52.60
2019-06-07T06:46:58.153Z,52.60
2019-06-07T06:49:25.092Z,52.60
2019-06-07T06:51:54.772Z,52.70
2019-06-07T06:54:40.170Z,52.80
2019-06-07T06:57:17.309Z,53.20
2019-06-07T06:59:39.998Z,53.40
2019-06-07T07:02:09.338Z,53.50
2019-06-07T07:04:41.824Z,53.50
2019-06-07T07:07:10.773Z,53.70
2019-06-07T07:09:43.774Z,53.50
2019-06-07T07:12:15.127Z,53.60
2019-06-07T07:14:47.345Z,53.50
2019-06-07T07:17:16.348Z,53.60
2019-06-07T07:19:48.453Z,53.60
2019-06-07T07:22:17.399Z,53.70
2019-06-07T07:24:49.754Z,53.70
2019-06-07T07:27:18.388Z,53.60
2019-06-07T07:29:56.406Z,53.70
2019-06-07T07:32:19.420Z,53.70
2019-06-07T07:34:51.795Z,53.70
2019-06-07T07:37:20.504Z,53.90
2019-06-07T07:39:54.098Z,54.00
2019-06-07T07:42:22.031Z,54.00
2019-06-07T07:44:54.610Z,54.00
2019-06-07T07:47:23.061Z,54.00
2019-06-07T07:49:56.476Z,53.80
2019-06-07T07:52:24.134Z,53.70
2019-06-07T07:54:57.791Z,53.60
2019-06-07T07:57:25.235Z,53.60
2019-06-07T08:00:25.271Z,69.30
2019-06-07T08:02:26.248Z,53.60
2019-06-07T08:05:25.557Z,53.60
2019-06-07T08:07:33.309Z,53.60
2019-06-07T08:10:04.066Z,53.70
2019-06-07T08:12:55.608Z,53.60
2019-06-07T08:15:06.451Z,53.50
2019-06-07T08:17:36.101Z,53.20
2019-06-07T08:20:06.326Z,53.10
2019-06-07T08:22:36.081Z,53.00
2019-06-07T08:25:06.067Z,52.90
2019-06-07T08:27:35.829Z,52.80
2019-06-07T08:30:35.041Z,52.60
2019-06-07T08:32:37.894Z,52.40
2019-06-07T08:35:08.305Z,52.00
2019-06-07T08:40:09.982Z,51.80
2019-06-07T08:42:59.709Z,51.70
2019-06-07T08:45:11.792Z,51.70
2019-06-07T08:47:41.428Z,51.90
2019-06-07T08:50:11.932Z,65.30
2019-06-07T08:55:11.138Z,64.50
2019-06-07T09:00:42.420Z,69.60
2019-06-07T09:05:12.502Z,70.90
2019-06-07T09:10:14.220Z,67.20
2019-06-07T09:12:43.604Z,64.50
2019-06-07T09:15:22.771Z,64.80
2019-06-07T09:18:30.199Z,65.10
2019-06-07T09:20:35.755Z,61.30
2019-06-07T09:22:49.494Z,61.80
2019-06-07T09:25:21.642Z,50.40
2019-06-07T09:27:51.067Z,50.30
2019-06-07T09:30:38.948Z,50.30
2019-06-07T09:33:09.119Z,50.30
2019-06-07T09:35:39.948Z,50.10
2019-06-07T09:38:23.703Z,50.30
2019-06-07T09:40:41.597Z,50.20
2019-06-07T09:45:42.663Z,50.00
2019-06-07T09:48:16.236Z,50.80
2019-06-07T09:50:43.891Z,50.10
2019-06-07T09:53:22.838Z,50.00
2019-06-07T09:55:44.882Z,49.90
2019-06-07T09:58:50.116Z,49.70
2019-06-07T10:00:46.095Z,49.20
2019-06-07T10:03:21.052Z,49.60
2019-06-07T10:05:47.288Z,49.90
2019-06-07T10:09:26.279Z,49.80
2019-06-07T10:10:48.431Z,49.60
2019-06-07T10:13:18.146Z,49.30
2019-06-07T10:15:47.923Z,49.20
2019-06-07T10:18:18.007Z,48.90
2019-06-07T10:20:48.066Z,48.80
2019-06-07T10:23:17.802Z,48.50
2019-06-07T10:25:47.463Z,48.20
2019-06-07T10:28:17.171Z,47.90
2019-06-07T10:30:46.920Z,48.10
2019-06-07T10:33:16.573Z,48.30
2019-06-07T10:35:46.294Z,48.90
2019-06-07T10:38:15.991Z,49.50
2019-06-07T10:40:45.734Z,49.90
2019-06-07T10:43:15.486Z,50.30
2019-06-07T10:45:45.239Z,50.90
2019-06-07T10:48:15.346Z,51.20
2019-06-07T10:50:46.548Z,51.30
2019-06-07T10:53:16.290Z,51.40
2019-06-07T10:55:45.967Z,51.20
2019-06-07T10:58:15.587Z,51.60
2019-06-07T11:00:45.254Z,51.30
2019-06-07T11:03:14.941Z,51.20
2019-06-07T11:05:44.653Z,51.00
2019-06-07T11:08:15.040Z,51.00
2019-06-07T11:10:44.954Z,50.90
2019-06-07T11:13:14.596Z,51.00
2019-06-07T11:15:44.408Z,50.60
2019-06-07T11:18:14.438Z,50.40
2019-06-07T11:20:44.738Z,50.40
2019-06-07T11:23:14.574Z,50.40
2019-06-07T11:25:44.301Z,50.10
2019-06-07T11:28:14.702Z,50.30
2019-06-07T11:30:44.556Z,49.70
2019-06-07T11:33:16.334Z,49.50
2019-06-07T11:35:45.643Z,49.40
2019-06-07T11:38:15.361Z,49.60
2019-06-07T11:40:45.114Z,49.60
2019-06-07T11:43:15.047Z,49.40
2019-06-07T11:45:44.774Z,49.20
2019-06-07T11:48:15.505Z,49.30
2019-06-07T11:50:45.344Z,49.00
2019-06-07T11:53:15.046Z,48.70
2019-06-07T11:55:44.779Z,48.80
2019-06-07T11:58:18.983Z,48.60
2019-06-07T12:00:47.479Z,48.50
2019-06-07T12:03:18.047Z,48.40
2019-06-07T12:05:47.954Z,48.00
2019-06-07T12:08:18.208Z,48.30
2019-06-07T12:10:48.286Z,47.40
2019-06-07T12:13:18.974Z,47.30
2019-06-07T12:15:49.387Z,47.10
2019-06-07T12:18:19.761Z,47.00
2019-06-07T12:20:49.569Z,46.70
2019-06-07T12:23:20.176Z,46.70
2019-06-07T12:25:50.021Z,46.80
2019-06-07T12:28:20.917Z,47.40
2019-06-07T12:30:50.701Z,46.90
2019-06-07T12:33:21.603Z,46.90
2019-06-07T12:35:51.512Z,46.50
2019-06-07T12:38:22.943Z,46.20
2019-06-07T12:40:57.551Z,46.30
2019-06-07T12:43:24.301Z,46.10
2019-06-07T12:45:54.029Z,45.90
2019-06-07T12:48:25.939Z,45.70
2019-06-07T12:50:55.211Z,45.50
2019-06-07T12:53:27.980Z,45.30
2019-06-07T12:55:59.886Z,45.20
2019-06-07T12:58:34.483Z,45.10
2019-06-07T13:01:01.861Z,45.00
2019-06-07T13:03:31.487Z,45.80
2019-06-07T13:06:01.272Z,45.00
2019-06-07T13:08:31.006Z,45.20
2019-06-07T13:11:14.077Z,45.30
2019-06-07T13:13:32.124Z,45.20
2019-06-07T13:16:01.925Z,45.00
2019-06-07T13:18:34.097Z,44.80
2019-06-07T13:21:05.445Z,44.40
2019-06-07T13:23:37.896Z,43.90
2019-06-07T13:26:07.596Z,43.70
2019-06-07T13:28:37.381Z,44.00
2019-06-07T13:31:07.069Z,43.70
2019-06-07T13:33:38.821Z,43.40
2019-06-07T13:36:08.178Z,43.00
2019-06-07T13:38:38.197Z,42.80
2019-06-07T13:41:07.831Z,42.70
2019-06-07T13:43:37.626Z,42.70
2019-06-07T13:46:07.250Z,42.20
2019-06-07T13:51:36.356Z,41.80
2019-06-07T13:54:06.113Z,41.50
2019-06-07T13:56:35.762Z,41.70
2019-06-07T13:59:05.598Z,41.70
2019-06-07T14:01:35.254Z,42.20
2019-06-07T14:04:05.008Z,42.60
2019-06-07T14:06:34.738Z,42.50
2019-06-07T14:09:05.907Z,43.40
2019-06-07T14:11:50.050Z,42.90
2019-06-07T14:14:06.966Z,43.20
2019-06-07T14:16:36.641Z,43.40
2019-06-07T14:19:06.313Z,43.10
2019-06-07T14:21:35.970Z,42.70
2019-06-07T14:24:05.760Z,41.80
2019-06-07T14:26:35.377Z,41.20
2019-06-07T14:29:05.154Z,40.90
2019-06-07T14:31:34.794Z,40.60
2019-06-07T14:34:04.577Z,40.40
2019-06-07T14:36:34.570Z,40.10
2019-06-07T14:39:05.556Z,39.60
2019-06-07T14:41:35.404Z,39.30
2019-06-07T14:44:05.511Z,38.40
2019-06-07T14:46:35.172Z,37.30
2019-06-07T14:49:04.816Z,36.10
2019-06-07T14:51:35.310Z,35.70
2019-06-07T14:54:05.235Z,35.90
2019-06-07T14:56:35.313Z,35.40
2019-06-07T14:59:05.332Z,35.10
2019-06-07T15:01:35.595Z,35.10
2019-06-07T15:04:05.873Z,35.00
2019-06-07T15:06:35.625Z,34.40
2019-06-07T15:09:06.842Z,34.30
2019-06-07T15:11:36.717Z,34.20
2019-06-07T15:14:06.706Z,33.70
2019-06-07T15:19:12.380Z,32.10
2019-06-07T15:21:42.220Z,31.40
2019-06-07T15:24:11.908Z,30.50
2019-06-07T15:26:41.679Z,30.00
2019-06-07T15:29:11.345Z,29.60
2019-06-07T15:31:41.037Z,29.10
2019-06-07T15:34:10.709Z,29.00
2019-06-07T15:36:40.356Z,29.10
2019-06-07T15:39:10.210Z,29.10
2019-06-07T15:41:40.041Z,29.30
2019-06-07T15:44:09.862Z,29.30
2019-06-07T15:52:01.280Z,28.50
2019-06-07T15:54:30.900Z,28.00
2019-06-07T15:57:03.980Z,28.60
2019-06-07T15:59:35.695Z,28.50
2019-06-07T16:02:05.036Z,28.60
2019-06-07T16:04:48.923Z,28.50
2019-06-07T16:07:18.835Z,28.20
2019-06-07T16:09:55.270Z,27.90
2019-06-07T16:12:24.980Z,27.60
2019-06-07T16:14:54.666Z,27.70
2019-06-07T16:17:24.468Z,27.30
2019-06-07T16:19:54.226Z,27.00
2019-06-07T16:22:23.955Z,26.90
2019-06-07T16:24:53.858Z,26.50
2019-06-07T16:29:59.800Z,26.20
2019-06-07T16:32:29.960Z,25.90
2019-06-07T16:34:59.680Z,25.70
2019-06-07T16:37:29.409Z,26.10
2019-06-07T16:39:59.290Z,26.00
2019-06-07T16:42:29.058Z,25.90
2019-06-07T16:45:01.591Z,25.50
2019-06-07T16:47:31.359Z,25.70
2019-06-07T16:50:01.076Z,25.70
2019-06-07T16:52:30.787Z,25.70
2019-06-07T16:55:01.818Z,25.50
2019-06-07T16:57:31.587Z,25.40
2019-06-07T17:00:01.235Z,25.30
2019-06-07T17:02:30.966Z,25.30
2019-06-07T17:05:00.620Z,25.40
2019-06-07T17:07:30.367Z,25.50
2019-06-07T17:10:00.070Z,25.70
2019-06-07T17:12:29.716Z,26.10
2019-06-07T17:14:59.362Z,26.70
2019-06-07T17:17:29.053Z,27.30
2019-06-07T17:19:58.733Z,27.80
2019-06-07T17:22:28.556Z,28.20
2019-06-07T17:24:58.271Z,28.70
2019-06-07T17:27:27.981Z,29.20
2019-06-07T17:29:57.809Z,30.00
2019-06-07T17:32:27.541Z,30.00
2019-06-07T17:34:57.271Z,31.30
2019-06-07T17:37:26.888Z,31.60
2019-06-07T17:39:56.616Z,33.20
2019-06-07T17:42:26.306Z,34.70
2019-06-07T17:44:55.946Z,36.10
2019-06-07T17:47:25.662Z,37.10
2019-06-07T17:49:55.326Z,38.00
2019-06-07T17:52:25.083Z,38.70
2019-06-07T17:54:54.781Z,39.10
2019-06-07T17:57:24.525Z,39.70
2019-06-07T17:59:54.202Z,40.20
2019-06-07T18:02:24.057Z,40.70
2019-06-07T18:04:53.936Z,41.00
2019-06-07T18:07:24.884Z,41.30
2019-06-07T18:09:55.981Z,41.80
2019-06-07T18:12:25.838Z,42.10
2019-06-07T18:14:55.693Z,42.30
2019-06-07T18:17:34.046Z,42.30
2019-06-07T18:19:56.773Z,42.20
2019-06-07T18:22:32.566Z,41.90
2019-06-07T18:25:02.821Z,44.50
2019-06-07T18:27:32.497Z,41.20
2019-06-07T18:30:10.797Z,41.00
2019-06-07T18:32:33.628Z,40.90
2019-06-07T18:35:03.372Z,40.90
2019-06-07T18:37:33.556Z,40.90
2019-06-07T18:40:04.004Z,41.10
2019-06-07T18:42:33.916Z,41.80
2019-06-07T18:45:03.808Z,41.70
2019-06-07T18:47:33.716Z,41.90
2019-06-07T18:50:03.684Z,42.10
2019-06-07T18:52:35.735Z,42.40
2019-06-07T18:55:06.186Z,42.70
2019-06-07T18:57:37.164Z,42.90
2019-06-07T19:00:08.499Z,43.30
2019-06-07T19:02:40.174Z,43.60
2019-06-07T19:05:14.074Z,43.90
2019-06-07T19:07:43.961Z,44.30
2019-06-07T19:10:14.185Z,44.60
2019-06-07T19:12:44.100Z,44.80
2019-06-07T19:15:15.329Z,45.10
2019-06-07T19:17:45.374Z,45.40
2019-06-07T19:20:18.814Z,45.60
2019-06-07T19:22:49.993Z,45.80
2019-06-07T19:25:20.304Z,46.20
2019-06-07T19:27:50.660Z,46.60
2019-06-07T19:30:22.921Z,46.80
2019-06-07T19:32:53.168Z,47.10
2019-06-07T19:35:23.338Z,47.40
2019-06-07T19:37:53.826Z,47.70
2019-06-07T19:40:24.012Z,47.90
2019-06-07T19:42:58.505Z,48.10
2019-06-07T19:45:31.464Z,48.40
2019-06-07T19:48:00.799Z,48.70
2019-06-07T19:50:30.839Z,48.70
2019-06-07T19:53:01.297Z,48.70
2019-06-07T19:55:33.680Z,48.90
2019-06-07T19:58:03.945Z,48.90
2019-06-07T20:00:34.124Z,49.60
2019-06-07T20:03:04.477Z,49.10
2019-06-07T20:05:34.553Z,49.30
2019-06-07T20:08:04.894Z,49.50
2019-06-07T20:10:35.081Z,49.60
2019-06-07T20:13:05.286Z,49.80
2019-06-07T20:15:35.367Z,49.90
2019-06-07T20:18:05.675Z,50.10
2019-06-07T20:20:35.749Z,50.20
2019-06-07T20:23:05.846Z,50.50
2019-06-07T20:25:35.630Z,50.50
2019-06-07T20:28:05.671Z,50.70
2019-06-07T20:30:35.651Z,50.90
2019-06-07T20:33:06.182Z,51.10
2019-06-07T20:35:36.175Z,51.40
2019-06-07T20:38:06.023Z,51.60
2019-06-07T20:40:35.814Z,51.60
2019-06-07T20:43:05.835Z,51.70
2019-06-07T20:45:35.842Z,52.10
2019-06-07T20:48:06.334Z,52.10
2019-06-07T20:50:36.252Z,52.20
2019-06-07T20:53:07.184Z,52.30
2019-06-07T20:55:37.097Z,52.50
2019-06-07T20:58:07.248Z,52.50
2019-06-07T21:00:37.310Z,52.50
2019-06-07T21:03:07.521Z,52.50
2019-06-07T21:05:37.287Z,52.50
2019-06-07T21:08:09.807Z,53.20
2019-06-07T21:10:38.316Z,52.70
2019-06-07T21:13:08.223Z,52.70
2019-06-07T21:15:48.230Z,52.80
2019-06-07T21:18:18.543Z,52.80
2019-06-07T21:20:40.835Z,52.80
2019-06-07T21:23:12.003Z,52.90
2019-06-07T21:25:42.133Z,52.90
2019-06-07T21:28:12.061Z,53.20
2019-06-07T21:30:41.873Z,53.20
2019-06-07T21:33:11.914Z,53.20
2019-06-07T21:35:42.353Z,53.20
2019-06-07T21:38:12.786Z,53.20
2019-06-07T21:40:42.581Z,53.30
2019-06-07T21:43:12.744Z,53.30
2019-06-07T21:45:42.788Z,53.30
2019-06-07T21:48:14.245Z,53.40
2019-06-07T21:50:43.860Z,53.50
2019-06-07T21:53:13.552Z,53.60
2019-06-07T21:55:43.288Z,54.00
2019-06-07T21:58:13.577Z,53.70
2019-06-07T22:01:25.010Z,53.70
2019-06-07T22:03:54.700Z,53.70
2019-06-07T22:06:24.451Z,53.70
2019-06-07T22:08:54.114Z,53.90
2019-06-07T22:11:23.898Z,53.90
2019-06-07T22:13:53.684Z,54.00
2019-06-07T22:16:28.977Z,53.90
2019-06-07T22:18:54.766Z,54.00
2019-06-07T22:21:24.455Z,53.90
2019-06-07T22:23:54.090Z,54.10
2019-06-07T22:26:23.749Z,54.70
2019-06-07T22:28:53.524Z,55.40
2019-06-07T22:31:23.196Z,55.90
2019-06-07T22:33:52.903Z,56.20
2019-06-07T22:36:22.716Z,56.60
2019-06-07T22:38:52.371Z,56.80
2019-06-07T22:41:22.115Z,57.20
2019-06-07T22:43:51.962Z,57.60
2019-06-07T22:46:36.367Z,57.60
2019-06-07T22:48:52.929Z,57.80
2019-06-07T22:51:22.663Z,58.00
2019-06-07T22:53:52.355Z,58.40
2019-06-07T22:56:30.146Z,58.70
2019-06-07T22:58:59.850Z,59.00
2019-06-07T23:01:29.482Z,59.40
2019-06-07T23:03:59.219Z,59.70
2019-06-07T23:06:28.910Z,60.10
2019-06-07T23:08:58.536Z,60.20
2019-06-07T23:11:28.292Z,60.40
2019-06-07T23:13:57.915Z,60.60
2019-06-07T23:16:27.616Z,60.70
2019-06-07T23:18:57.387Z,60.90
2019-06-07T23:21:27.063Z,61.00
2019-06-07T23:23:56.707Z,61.30
2019-06-07T23:26:26.379Z,61.60
2019-06-07T23:28:56.058Z,61.90
2019-06-07T23:31:25.683Z,62.30
2019-06-07T23:33:55.324Z,62.50
2019-06-07T23:36:25.070Z,62.60
2019-06-07T23:38:54.759Z,62.60
2019-06-07T23:41:24.428Z,62.70
2019-06-07T23:43:54.103Z,62.80
2019-06-07T23:46:23.838Z,62.80
2019-06-07T23:48:53.559Z,62.90
2019-06-07T23:51:23.438Z,62.90
2019-06-07T23:53:53.133Z,63.20
2019-06-07T23:56:22.812Z,63.20
2019-06-07T23:58:52.473Z,63.40
